Holmesville, New York
Current Conditions -  °F | °C
As of 3:08 AM on Friday 28 Nov 2014 (Local Time) from KBGM Reporting Station
Overcast Overcast  
Wind Chill: 15°   Ceiling: 5000
Heat Index: 24°   Visibility: 8mi
Dew Point: 22°   Wind: 8mph
Humidity: 91%   Direction: 320°NW
Pressure: 30.02"   Gusts: NA
Location:  42.5358°N, 75.3475°W
Report Text: KBGM 280808Z AUTO 32007KT 8SM SCT013 OVC050 M04/M06 A3002 RMK AO2 SNE0759 P0000 T10441056 $
Loading
Personal Weather Stations






























Interactive Weather Map New forecast layout! Learn more

10-Day Weather Forecast

Advertisements
Track Severe Weather on mobile